Pagrindinis puslapis
METAR-TAF:

METAR-TAF

Oro uostai :

Lamecija Termė, Italija

platuma: 38-54N, ilguma: 016-15E, Aukštis: 15 m

Dabartinis oras

Ataskaita buvo paskelbta 59 minutes, ne 02:50 UTC
Vėjas 2 kt nuo kintamojo kryptimis
Temperatūra 10°C
Drėgmė 82%
Slėgis 1025 hPa
Matomumas 10 km arba daugiau
Mažai debesys ne aukštis 3000 ft
Su prošvaistėmis ne aukštis 5000 ft

METAR: LICA 180250Z VRB02KT 9999 FEW030 BKN050 10/07 Q1025

Laikas: 04:49 (03:49 UTC)

Prognozė

Ataskaita buvo paskelbta 4 valandos ir 49 minutes, ne 23:00 UTC
Prognozė galioja nuo 18 metu 00 UTC su 18 metu 24 UTC
Vėjas 5 kt nuo kintamojo kryptimis
Matomumas 10 km arba daugiau
Išsisklaidę debesys ne aukštis 2000 ft
Tapsmas
nuo 18 metu 07 UTC su 18 metu 09 UTC
Vėjas 12 kt iš Vakarų
Laikinai
nuo 18 metu 12 UTC su 18 metu 18 UTC
lietus

TAF: LICA 172300Z 1800/1824 VRB05KT 9999 SCT020 BECMG 1807/1809 26012KT TEMPO 1812/1818 RA

Orai ataskaitas ir orų prognozės (METAR, TAF).

turimą stotys yra geltonos ir raudonos taškus žemėlapyje.

Perkelti pele per norėdami pamatyti stoties vardą.

Tada spustelėkite, norėdami matyti oro stebėjimo ir prognozės.

Norėdami pakeisti žemėlapį: spustelėkite ant žalios mygtukų su juodo kryžiaus žemyn,; žalią mygtuką su brūkšneliu, jei norite nutolinti; arba žalių rodyklių gretimoms žemėlapius.


METAR-TAF: